Time;durP1;ratioP1;P1;durP2;ratioP2;P2;SDS_P1;SDS_P2;PMS_P1;PMS_P2;Temp;Humidity;BMP_temperature;BMP_pressure;BME280_temperature;BME280_humidity;BME280_pressure;Samples;Min_cycle;Max_cycle;Signal;HPM_P1;HPM_P2
2022/01/25 00:10:12;;;;;;;60.60;34.10;;;;;;;3.35;100.00;103607.00;5090367;28;20047;-81
2022/01/25 00:31:13;;;;;;;61.13;35.65;;;;;;;3.32;100.00;103601.53;5089351;28;20117;-81
2022/01/25 00:33:41;;;;;;;64.60;36.08;;;;;;;3.32;100.00;103606.75;5069085;28;20024;-81
2022/01/25 00:36:09;;;;;;;67.45;36.25;;;;;;;3.31;100.00;103610.09;5063036;28;20078;-80
2022/01/25 00:38:34;;;;;;;61.22;35.90;;;;;;;3.32;100.00;103611.94;5071087;28;20025;-81
2022/01/25 00:41:00;;;;;;;67.10;37.17;;;;;;;3.32;100.00;103611.00;5092031;28;20016;-81
2022/01/25 00:43:26;;;;;;;68.15;36.83;;;;;;;3.32;99.85;103608.41;5078110;28;20115;-81
2022/01/25 00:45:59;;;;;;;65.75;37.30;;;;;;;3.30;100.00;103608.28;5062118;28;20024;-82
2022/01/25 00:51:16;;;;;;;68.80;35.83;;;;;;;3.30;100.00;103603.06;5105251;28;20064;-80
2022/01/25 00:54:01;;;;;;;68.30;39.03;;;;;;;3.32;100.00;103601.53;5083178;28;20108;-80
2022/01/25 00:56:30;;;;;;;;;;;;;;;3.30;100.00;103592.66;5103068;28;20035;-81
2022/01/25 00:58:57;;;;;;;64.40;33.85;;;;;;;3.30;100.00;103592.66;5089493;28;19912;-82
2022/01/25 01:01:23;;;;;;;71.40;36.33;;;;;;;3.26;100.00;103590.56;5084951;28;20391;-80
2022/01/25 01:03:49;;;;;;;65.15;37.05;;;;;;;3.28;100.00;103596.78;5098446;28;20020;-81
2022/01/25 01:06:15;;;;;;;73.18;39.08;;;;;;;3.26;100.00;103590.56;5099083;28;20085;-80
2022/01/25 01:08:41;;;;;;;68.45;38.50;;;;;;;3.25;100.00;103585.22;5099783;28;20038;-80
2022/01/25 01:11:10;;;;;;;68.22;36.38;;;;;;;3.25;100.00;103590.41;5102533;28;20035;-81
2022/01/25 01:33:22;;;;;;;69.03;38.03;;;;;;;3.20;100.00;103595.19;5100019;28;20479;-81
2022/01/25 01:48:39;;;;;;;70.82;38.20;;;;;;;3.19;100.00;103590.78;5102440;28;20051;-81
2022/01/25 01:51:25;;;;;;;76.40;38.65;;;;;;;3.19;100.00;103593.38;5088831;28;20028;-80
2022/01/25 01:53:52;;;;;;;68.00;36.60;;;;;;;3.17;100.00;103581.91;5097796;28;20104;-81
2022/01/25 01:56:17;;;;;;;68.75;37.92;;;;;;;3.17;100.00;103585.44;5110073;28;20075;-80
2022/01/25 01:58:43;;;;;;;70.45;38.50;;;;;;;3.18;100.00;103587.25;5090189;28;20077;-81
2022/01/25 02:01:14;;;;;;;72.85;39.22;;;;;;;3.18;100.00;103594.16;5083146;28;20177;-81
2022/01/25 02:03:39;;;;;;;70.75;39.08;;;;;;;3.18;100.00;103583.75;5109542;28;20016;-82
2022/01/25 02:06:05;;;;;;;68.32;37.90;;;;;;;3.17;100.00;103575.03;5079338;28;20023;-79
2022/01/25 02:08:31;;;;;;;69.65;37.15;;;;;;;3.19;100.00;103569.97;5098715;28;20024;-80
2022/01/25 02:10:56;;;;;;;74.30;41.08;;;;;;;3.19;100.00;103575.19;5087788;28;20051;-81
2022/01/25 02:13:22;;;;;;;73.07;39.65;;;;;;;3.19;100.00;103575.19;5082882;28;20024;-80
2022/01/25 02:15:49;;;;;;;68.10;38.28;;;;;;;3.19;100.00;103577.78;5081944;28;20039;-80
2022/01/25 02:23:45;;;;;;;70.60;38.42;;;;;;;3.17;100.00;103568.91;5098732;28;20131;-79
2022/01/25 02:26:13;;;;;;;71.28;37.88;;;;;;;3.16;100.00;103568.00;5084038;28;20122;-80
2022/01/25 02:28:41;;;;;;;71.88;39.40;;;;;;;3.17;100.00;103568.91;5094360;28;20091;-80
2022/01/25 02:31:09;;;;;;;73.32;40.33;;;;;;;3.17;100.00;103563.69;5087320;28;20112;-80
2022/01/25 02:33:35;;;;;;;69.28;37.92;;;;;;;3.16;100.00;103567.06;5097304;28;20361;-80
2022/01/25 02:36:05;;;;;;;71.47;38.92;;;;;;;3.16;100.00;103567.06;5105134;28;20035;-80
2022/01/25 02:38:32;;;;;;;73.63;38.22;;;;;;;3.15;100.00;103558.34;5106438;28;20035;-80
2022/01/25 02:40:58;;;;;;;72.43;39.47;;;;;;;3.16;100.00;103554.06;5077828;28;20081;-80
2022/01/25 02:43:25;;;;;;;76.15;40.13;;;;;;;3.16;100.00;103546.25;5097313;28;20081;-81
2022/01/25 02:48:57;;;;;;;76.47;38.85;;;;;;;3.15;100.00;103562.66;5096439;28;20050;-82
2022/01/25 02:51:26;;;;;;;72.78;38.95;;;;;;;3.13;100.00;103556.38;5077150;28;20101;-80
2022/01/25 02:53:53;;;;;;;77.75;40.60;;;;;;;3.12;100.00;103565.91;5099648;28;20028;-81
2022/01/25 02:56:18;;;;;;;75.70;40.35;;;;;;;3.14;100.00;103564.31;5105821;28;20480;-80
2022/01/25 02:58:44;;;;;;;75.28;39.42;;;;;;;3.13;100.00;103572.00;5102011;28;20110;-80
2022/01/25 03:01:11;;;;;;;71.30;37.97;;;;;;;3.13;100.00;103569.41;5086661;28;20076;-81
2022/01/25 03:03:37;;;;;;;75.35;38.55;;;;;;;3.12;100.00;103570.16;5101369;28;20043;-81
2022/01/25 03:06:03;;;;;;;76.35;39.30;;;;;;;3.10;100.00;103576.94;5101970;28;20023;-80
2022/01/25 03:08:29;;;;;;;75.18;39.47;;;;;;;3.12;100.00;103575.38;5101015;28;20028;-80
2022/01/25 03:10:54;;;;;;;73.53;39.17;;;;;;;3.12;100.00;103575.38;5081979;28;20111;-81
2022/01/25 03:13:25;;;;;;;78.72;40.28;;;;;;;3.13;100.00;103578.09;5090475;28;20057;-81
2022/01/25 03:18:38;;;;;;;78.78;39.28;;;;;;;3.15;100.00;103571.38;5095638;28;20032;-79
2022/01/25 03:21:34;;;;;;;74.93;38.25;;;;;;;3.15;100.00;103568.75;5097689;28;20105;-80
2022/01/25 03:24:02;;;;;;;77.13;40.25;;;;;;;3.15;100.00;103573.06;5077706;28;20064;-80
2022/01/25 03:26:28;;;;;;;75.07;38.80;;;;;;;3.14;100.00;103568.63;5098498;28;20028;-79
2022/01/25 03:28:54;;;;;;;82.47;42.05;;;;;;;3.14;100.00;103558.22;5083303;28;20032;-80
2022/01/25 03:31:21;;;;;;;82.32;40.25;;;;;;;3.17;100.00;103554.22;5103803;28;20028;-80
2022/01/25 03:33:46;;;;;;;79.32;40.08;;;;;;;3.16;100.00;103559.25;5101277;28;20040;-80
2022/01/25 03:36:12;;;;;;;80.20;38.70;;;;;;;3.15;100.00;103550.56;5108047;28;20032;-81
2022/01/25 03:38:39;;;;;;;76.68;39.58;;;;;;;3.17;100.00;103558.50;5098090;28;20476;-80
2022/01/25 03:41:07;;;;;;;75.95;39.00;;;;;;;3.20;100.00;103558.75;5096160;28;20023;-80
2022/01/25 03:43:34;;;;;;;75.28;37.30;;;;;;;3.19;100.00;103549.16;5110609;28;20107;-81
2022/01/25 03:46:21;;;;;;;72.03;39.58;;;;;;;3.17;100.00;103551.63;5111511;28;20019;-80
2022/01/25 03:51:31;;;;;;;72.03;37.67;;;;;;;3.20;100.00;103553.56;5110808;28;20058;-80
2022/01/25 03:53:56;;;;;;;73.45;37.50;;;;;;;3.20;100.00;103550.94;5084038;28;20463;-81
2022/01/25 03:56:23;;;;;;;71.82;37.20;;;;;;;3.21;100.00;103552.78;5092034;28;20028;-80
2022/01/25 03:58:49;;;;;;;74.38;37.83;;;;;;;3.20;100.00;103553.56;5087512;28;20026;-80
2022/01/25 04:01:15;;;;;;;66.45;36.15;;;;;;;3.23;100.00;103547.72;5088229;28;20031;-80
2022/01/25 04:03:48;;;;;;;69.93;37.95;;;;;;;3.21;100.00;103544.97;5109231;28;20498;-80
2022/01/25 04:06:18;;;;;;;72.10;36.80;;;;;;;3.24;100.00;103547.84;5101622;28;20490;-80
2022/01/25 04:08:44;;;;;;;75.20;37.75;;;;;;;3.23;100.00;103552.91;5087916;28;20024;-80
2022/01/25 04:11:09;;;;;;;72.70;36.60;;;;;;;3.22;100.00;103549.41;5100965;28;20092;-80
2022/01/25 04:13:34;;;;;;;67.35;36.67;;;;;;;3.21;100.00;103544.97;5104459;28;20035;-79
2022/01/25 04:16:08;;;;;;;65.47;35.55;;;;;;;3.23;100.00;103542.50;5080639;28;20046;-82
2022/01/25 04:18:47;;;;;;;64.07;34.80;;;;;;;3.23;100.00;103538.25;5080249;28;20158;-80
2022/01/25 04:21:27;;;;;;;62.30;33.72;;;;;;;3.26;100.00;103537.59;5084161;28;20027;-81
2022/01/25 04:26:37;;;;;;;65.85;34.72;;;;;;;3.22;98.51;103532.91;5098548;28;20042;-80
2022/01/25 04:29:03;;;;;;;63.97;34.28;;;;;;;3.22;98.76;103528.59;5089837;28;20023;-81
2022/01/25 04:31:29;;;;;;;60.45;34.08;;;;;;;3.19;99.34;103530.94;5107398;28;20012;-81
2022/01/25 04:34:42;;;;;;;61.70;33.45;;;;;;;3.20;99.78;103530.13;5102858;28;20047;-80
2022/01/25 04:48:55;;;;;;;67.60;35.95;;;;;;;3.20;99.56;103530.13;5100472;28;20083;-81
2022/01/25 04:53:00;;;;;;;74.70;36.78;;;;;;;3.18;100.00;103524.81;5101056;28;20032;-82
2022/01/25 04:55:36;;;;;;;69.25;35.65;;;;;;;3.18;99.48;103517.00;5092137;28;20036;-81
2022/01/25 04:58:10;;;;;;;76.95;37.25;;;;;;;3.19;100.00;103523.13;5088968;28;20081;-81
2022/01/25 05:00:35;;;;;;;65.80;35.85;;;;;;;3.18;98.68;103509.19;5092126;28;20947;-81
2022/01/25 05:03:13;;;;;;;67.57;36.00;;;;;;;3.19;97.38;103507.53;5085193;28;20020;-81
2022/01/25 05:06:07;;;;;;;64.00;34.97;;;;;;;3.20;97.44;103511.94;5094421;28;20051;-81
2022/01/25 05:13:52;;;;;;;65.95;34.20;;;;;;;3.19;98.70;103515.31;5107242;28;20474;-80
2022/01/25 05:16:32;;;;;;;67.57;35.40;;;;;;;3.19;98.16;103510.13;5090403;28;20051;-81
2022/01/25 05:22:04;;;;;;;67.30;35.00;;;;;;;3.19;99.56;103511.03;5101596;28;20517;-81
2022/01/25 05:22:18;;;;;;;62.67;34.15;;;;;;;3.21;99.09;103503.34;5094830;28;20023;-81
2022/01/25 05:24:44;;;;;;;67.57;34.53;;;;;;;3.23;99.72;103508.69;5082886;28;20031;-80
2022/01/25 05:27:12;;;;;;;61.72;33.33;;;;;;;3.21;99.12;103513.75;5097314;28;20024;-80
2022/01/25 05:29:38;;;;;;;66.90;34.97;;;;;;;3.20;98.38;103501.50;5102693;28;20051;-80
2022/01/25 05:32:04;;;;;;;64.07;35.42;;;;;;;3.19;97.18;103495.41;5101088;28;20039;-81
2022/01/25 05:34:29;;;;;;;66.28;34.45;;;;;;;3.19;96.89;103497.13;5102911;28;20045;-79
2022/01/25 05:36:55;;;;;;;66.65;35.17;;;;;;;3.20;97.25;103502.44;5100220;28;20032;-81
2022/01/25 05:39:31;;;;;;;70.25;36.42;;;;;;;3.20;97.09;103507.66;5110862;28;20031;-79
2022/01/25 05:42:02;;;;;;;70.57;36.60;;;;;;;3.22;99.00;103514.69;5089817;28;20024;-80
2022/01/25 05:44:41;;;;;;;74.40;37.53;;;;;;;3.20;100.00;103511.94;5104039;28;20028;-80
2022/01/25 05:47:12;;;;;;;66.85;35.92;;;;;;;3.18;98.45;103513.50;5103282;28;20058;-81
2022/01/25 05:49:38;;;;;;;65.68;35.60;;;;;;;3.18;98.50;103510.91;5085670;28;20050;-80
2022/01/25 05:52:05;;;;;;;68.32;35.35;;;;;;;3.19;99.08;103524.03;5078862;28;20032;-80
2022/01/25 05:54:31;;;;;;;64.85;33.97;;;;;;;3.18;98.62;103514.38;5097627;28;20024;-81
2022/01/25 05:56:56;;;;;;;65.95;33.88;;;;;;;3.20;99.01;103522.34;5105087;28;20080;-81
2022/01/25 05:59:21;;;;;;;64.45;34.55;;;;;;;3.20;98.90;103523.25;5100561;28;20379;-81
2022/01/25 06:01:48;;;;;;;65.65;33.63;;;;;;;3.19;97.52;103523.13;5087794;28;20028;-81
2022/01/25 06:04:14;;;;;;;57.08;32.53;;;;;;;3.20;95.58;103517.13;5106774;28;20020;-81
2022/01/25 06:06:39;;;;;;;60.63;32.40;;;;;;;3.19;95.61;103524.03;5097263;28;20039;-81
2022/01/25 06:09:04;;;;;;;56.00;31.00;;;;;;;3.21;95.60;103524.16;5102384;28;20332;-81
2022/01/25 06:11:30;;;;;;;50.15;29.48;;;;;;;3.23;94.12;103525.22;5101794;28;20024;-79
2022/01/25 06:13:55;;;;;;;65.57;33.67;;;;;;;3.23;94.22;103522.63;5105577;28;20046;-80
2022/01/25 06:16:21;;;;;;;65.40;34.72;;;;;;;3.23;97.04;103533.03;5083809;28;20369;-81
2022/01/25 06:18:46;;;;;;;62.00;35.42;;;;;;;3.22;97.11;103526.00;5080565;28;20035;-81
2022/01/25 06:21:11;;;;;;;62.83;33.22;;;;;;;3.20;96.87;103519.72;5107163;28;20043;-78
2022/01/25 06:23:37;;;;;;;62.88;34.25;;;;;;;3.22;98.33;103526.00;5084635;28;20081;-76
2022/01/25 06:26:02;;;;;;;65.28;35.55;;;;;;;3.23;98.49;103527.84;5107609;27;20475;-76
2022/01/25 06:28:28;;;;;;;66.72;35.95;;;;;;;3.20;98.75;103532.75;5094721;28;20545;-76
2022/01/25 06:30:53;;;;;;;65.40;35.33;;;;;;;3.19;98.73;103533.53;5095714;28;20098;-75
2022/01/25 06:33:19;;;;;;;64.85;34.47;;;;;;;3.20;96.88;103533.69;5086537;28;20345;-75
2022/01/25 06:35:46;;;;;;;58.00;31.63;;;;;;;3.20;97.09;103523.25;5110523;28;20019;-75
2022/01/25 06:38:12;;;;;;;64.32;33.67;;;;;;;3.21;96.69;103521.56;5104298;28;20038;-75
2022/01/25 06:40:37;;;;;;;58.72;31.90;;;;;;;3.20;96.58;103532.75;5098602;28;20019;-77
2022/01/25 06:43:03;;;;;;;65.20;34.33;;;;;;;3.20;96.52;103541.47;5106991;28;20058;-79
2022/01/25 06:45:28;;;;;;;67.93;35.72;;;;;;;3.17;97.54;103536.00;5081151;28;20031;-80
2022/01/25 06:47:53;;;;;;;68.60;34.55;;;;;;;3.19;98.93;103546.56;5083906;28;20050;-79
2022/01/25 06:50:22;;;;;;;72.05;39.13;;;;;;;3.18;98.69;103542.13;5103838;28;20052;-79
2022/01/25 06:52:48;;;;;;;65.72;34.40;;;;;;;3.17;99.15;103532.47;5102821;28;20082;-79
2022/01/25 06:55:16;;;;;;;70.32;36.20;;;;;;;3.17;98.17;103537.69;5086108;28;20056;-78
2022/01/25 06:57:43;;;;;;;66.95;34.78;;;;;;;3.17;99.33;103537.69;5098172;28;20081;-80
2022/01/25 07:00:12;;;;;;;66.13;33.80;;;;;;;3.16;99.46;103536.78;5085967;28;20438;-75
2022/01/25 07:02:37;;;;;;;66.18;34.90;;;;;;;3.15;98.97;103542.75;5099619;28;20088;-73
2022/01/25 07:05:04;;;;;;;70.18;36.78;;;;;;;3.16;99.55;103547.19;5099231;28;20028;-73
2022/01/25 07:07:30;;;;;;;73.90;36.65;;;;;;;3.16;99.17;103541.03;5099017;28;20019;-75
2022/01/25 07:09:56;;;;;;;71.18;36.67;;;;;;;3.17;99.67;103550.69;5104227;28;20390;-75
2022/01/25 07:12:21;;;;;;;77.35;38.17;;;;;;;3.16;99.88;103546.25;5082758;28;20035;-75
2022/01/25 07:14:47;;;;;;;69.40;37.30;;;;;;;3.14;99.40;103538.31;5101726;28;20093;-73
2022/01/25 07:17:13;;;;;;;69.70;36.03;;;;;;;3.14;98.59;103543.50;5085940;28;20074;-72
2022/01/25 07:19:38;;;;;;;70.75;37.38;;;;;;;3.15;99.71;103550.56;5097174;28;20024;-74
2022/01/25 07:22:05;;;;;;;73.10;36.83;;;;;;;3.17;100.00;103553.28;5095400;28;20047;-75
2022/01/25 07:24:30;;;;;;;76.63;38.55;;;;;;;3.16;99.44;103549.78;5080019;28;20460;-74
2022/01/25 07:26:56;;;;;;;74.22;37.33;;;;;;;3.17;99.78;103561.09;5108362;27;20035;-74
2022/01/25 07:29:21;;;;;;;83.70;39.95;;;;;;;3.17;99.80;103558.50;5096412;28;20059;-74
2022/01/25 07:31:46;;;;;;;74.10;36.05;;;;;;;3.17;100.00;103563.69;5082962;27;20058;-74
2022/01/25 07:34:13;;;;;;;69.72;35.53;;;;;;;3.16;100.00;103562.78;5096163;28;20016;-73
2022/01/25 07:36:41;;;;;;;74.75;38.40;;;;;;;3.15;99.39;103557.47;5087447;28;20143;-73
2022/01/25 07:39:06;;;;;;;67.32;35.90;;;;;;;3.16;98.87;103560.19;5095072;28;20034;-74
2022/01/25 07:41:32;;;;;;;70.57;36.28;;;;;;;3.15;97.87;103560.06;5102223;28;20324;-75
2022/01/25 07:43:59;;;;;;;74.18;38.60;;;;;;;3.15;97.67;103565.25;5084469;28;20114;-74
2022/01/25 07:46:25;;;;;;;73.60;37.92;;;;;;;3.15;97.26;103553.16;5082569;28;20020;-75
2022/01/25 07:48:51;;;;;;;69.18;35.67;;;;;;;3.17;98.19;103559.44;5076337;28;20074;-75
2022/01/25 07:51:16;;;;;;;74.68;37.88;;;;;;;3.18;99.70;103555.13;5082413;28;20047;-75
2022/01/25 07:53:43;;;;;;;71.90;37.28;;;;;;;3.18;99.83;103556.03;5097775;28;20654;-76
2022/01/25 07:56:10;;;;;;;75.35;37.10;;;;;;;3.17;98.95;103542.88;5103658;28;20486;-75
2022/01/25 07:58:36;;;;;;;69.85;34.97;;;;;;;3.17;98.12;103549.03;5104402;28;20032;-74
2022/01/25 08:01:01;;;;;;;73.63;34.85;;;;;;;3.17;97.55;103541.22;5082814;28;20019;-73
2022/01/25 08:03:27;;;;;;;66.85;34.85;;;;;;;3.21;96.11;103544.97;5101668;28;20475;-74
2022/01/25 08:05:52;;;;;;;70.97;35.80;;;;;;;3.23;96.00;103546.06;5099130;28;20477;-74
2022/01/25 08:08:17;;;;;;;72.72;37.45;;;;;;;3.22;97.65;103552.03;5097220;28;20115;-75
2022/01/25 08:10:43;;;;;;;70.60;35.13;;;;;;;3.20;96.73;103550.94;5102401;28;20115;-73
2022/01/25 08:13:08;;;;;;;67.18;35.30;;;;;;;3.18;96.85;103549.91;5083871;28;20027;-73
2022/01/25 08:15:34;;;;;;;70.38;36.67;;;;;;;3.22;96.12;103541.63;5078940;28;20028;-72
2022/01/25 08:17:59;;;;;;;74.05;36.25;;;;;;;3.22;95.28;103541.63;5085176;28;20023;-72
2022/01/25 08:20:24;;;;;;;70.88;36.92;;;;;;;3.24;95.20;103541.75;5107454;28;20023;-72
2022/01/25 08:22:51;;;;;;;70.47;36.70;;;;;;;3.23;95.70;103535.63;5101684;28;20028;-72
2022/01/25 08:25:17;;;;;;;66.50;35.50;;;;;;;3.23;96.59;103540.84;5095068;28;20035;-72
2022/01/25 08:27:43;;;;;;;75.32;37.70;;;;;;;3.26;97.60;103545.41;5093980;27;20024;-70
2022/01/25 08:30:09;;;;;;;73.13;36.00;;;;;;;3.26;97.72;103541.13;5112128;27;20031;-71
2022/01/25 08:32:35;;;;;;;70.22;36.88;;;;;;;3.27;98.29;103540.34;5084314;28;20086;-71
2022/01/25 08:35:01;;;;;;;76.57;39.05;;;;;;;3.28;98.48;103529.13;5109147;27;20058;-72
2022/01/25 08:37:26;;;;;;;67.93;36.35;;;;;;;3.34;98.51;103536.59;5078779;28;20043;-72
2022/01/25 08:39:52;;;;;;;77.15;39.63;;;;;;;3.35;98.64;103534.13;5109812;27;20038;-72
2022/01/25 08:42:18;;;;;;;73.50;36.17;;;;;;;3.34;98.60;103534.91;5114242;27;20027;-72
2022/01/25 08:44:43;;;;;;;77.38;39.15;;;;;;;3.35;98.65;103543.63;5098400;28;20087;-71
2022/01/25 08:47:09;;;;;;;76.07;36.25;;;;;;;3.35;98.59;103539.34;5111791;27;20073;-70
2022/01/25 08:49:35;;;;;;;75.22;37.35;;;;;;;3.37;98.93;103542.06;5109463;27;20410;-71
2022/01/25 08:52:01;;;;;;;76.75;38.25;;;;;;;3.40;98.46;103547.53;5106667;27;21868;-71
2022/01/25 08:54:26;;;;;;;71.80;36.35;;;;;;;3.38;96.59;103541.31;5098805;27;20040;-71
2022/01/25 08:56:55;;;;;;;73.68;36.17;;;;;;;3.38;95.33;103542.22;5104862;27;20043;-70
2022/01/25 08:59:20;;;;;;;73.20;37.28;;;;;;;3.36;95.05;103546.38;5086927;28;20059;-71
2022/01/25 09:01:46;;;;;;;75.10;38.00;;;;;;;3.36;95.43;103535.97;5099986;27;20077;-71
2022/01/25 09:04:12;;;;;;;75.72;36.97;;;;;;;3.41;96.20;103549.38;5086297;27;20038;-71
2022/01/25 09:06:37;;;;;;;76.90;37.10;;;;;;;3.44;97.44;103551.34;5115383;27;20050;-71
2022/01/25 09:09:05;;;;;;;82.30;38.53;;;;;;;3.45;97.40;103551.47;5109451;27;21038;-70
2022/01/25 09:11:31;;;;;;;79.97;37.17;;;;;;;3.44;98.40;103559.16;5103453;27;20400;-71
2022/01/25 09:13:57;;;;;;;71.53;36.75;;;;;;;3.44;97.56;103553.94;5112254;27;20095;-71
2022/01/25 09:16:22;;;;;;;73.78;36.08;;;;;;;3.45;98.32;103555.78;5094305;27;20058;-72
2022/01/25 09:18:48;;;;;;;67.45;36.30;;;;;;;3.46;97.95;103550.72;5099944;27;20060;-71
2022/01/25 09:21:13;;;;;;;78.40;37.95;;;;;;;3.46;97.09;103554.97;5108901;27;20019;-72
2022/01/25 09:23:38;;;;;;;73.68;38.30;;;;;;;3.49;96.95;103553.59;5111128;27;20517;-71
2022/01/25 09:26:05;;;;;;;73.32;37.17;;;;;;;3.51;97.00;103561.53;5088752;27;20047;-71
2022/01/25 09:28:31;;;;;;;71.05;36.50;;;;;;;3.50;96.43;103551.88;5110590;27;20031;-71
2022/01/25 09:30:57;;;;;;;73.95;38.33;;;;;;;3.51;96.88;103562.47;5115074;27;20057;-71
2022/01/25 09:33:23;;;;;;;76.00;37.72;;;;;;;3.55;97.24;103558.41;5111006;27;20093;-71
2022/01/25 09:35:50;;;;;;;73.45;37.03;;;;;;;3.57;96.74;103567.28;5109561;27;20111;-72
2022/01/25 09:38:16;;;;;;;72.22;38.10;;;;;;;3.59;96.29;103570.03;5119178;27;20034;-72
2022/01/25 09:40:41;;;;;;;69.10;36.80;;;;;;;3.59;95.97;103570.94;5093809;28;20372;-71
2022/01/25 09:43:07;;;;;;;76.07;38.55;;;;;;;3.58;96.57;103571.72;5095396;27;20024;-71
2022/01/25 09:45:34;;;;;;;72.32;37.38;;;;;;;3.56;96.26;103570.66;5109762;27;20023;-71
2022/01/25 09:48:00;;;;;;;71.25;36.42;;;;;;;3.58;96.26;103579.53;5096059;28;20066;-71
2022/01/25 09:50:26;;;;;;;72.40;36.97;;;;;;;3.61;95.81;103573.66;5085180;28;20068;-72
2022/01/25 09:52:52;;;;;;;75.30;36.92;;;;;;;3.62;96.20;103576.44;5100014;27;20027;-72
2022/01/25 09:55:22;;;;;;;76.72;38.33;;;;;;;3.59;95.37;103578.75;5101709;27;20066;-72
2022/01/25 09:57:48;;;;;;;74.60;39.22;;;;;;;3.59;95.63;103581.34;5091018;27;20024;-70
2022/01/25 10:00:17;;;;;;;74.53;37.28;;;;;;;3.60;94.85;103591.00;5106078;27;20555;-71
2022/01/25 10:03:10;;;;;;;72.78;36.92;;;;;;;3.59;94.73;103580.44;5102388;27;20106;-72
2022/01/25 10:05:41;;;;;;;74.38;37.92;;;;;;;3.61;95.43;103590.22;5101374;27;20432;-71
2022/01/25 10:08:09;;;;;;;72.00;36.97;;;;;;;3.62;93.68;103585.91;5099349;27;20034;-71
2022/01/25 10:10:41;;;;;;;76.38;38.17;;;;;;;3.62;94.27;103584.25;5077628;28;20032;-71
2022/01/25 10:13:19;;;;;;;74.90;37.63;;;;;;;3.63;95.17;103595.56;5086263;28;20043;-71
2022/01/25 10:15:45;;;;;;;72.70;37.15;;;;;;;3.66;94.66;103598.44;5101260;27;20482;-71
2022/01/25 10:18:10;;;;;;;72.75;36.58;;;;;;;3.64;93.80;103597.41;5098269;27;20055;-71
2022/01/25 10:20:41;;;;;;;72.93;36.97;;;;;;;3.67;96.02;103602.88;5109062;27;20095;-71
2022/01/25 10:23:13;;;;;;;81.45;39.13;;;;;;;3.68;97.12;103608.22;5100986;28;20047;-71
2022/01/25 10:25:40;;;;;;;74.28;37.00;;;;;;;3.70;97.24;103600.53;5096498;27;20035;-70
2022/01/25 10:28:11;;;;;;;81.28;38.55;;;;;;;3.69;97.06;103610.03;5086393;27;20473;-71
2022/01/25 10:30:48;;;;;;;77.32;38.40;;;;;;;3.69;96.39;103604.84;5104324;27;20507;-71
2022/01/25 10:33:50;;;;;;;76.28;38.88;;;;;;;3.70;96.81;103606.66;5089312;28;20028;-71
2022/01/25 10:36:19;;;;;;;81.57;37.92;;;;;;;3.72;96.63;103610.31;5092377;27;20379;-72
2022/01/25 10:38:47;;;;;;;81.55;38.65;;;;;;;3.75;96.75;103609.66;5111337;27;20497;-71
2022/01/25 10:41:15;;;;;;;80.88;39.75;;;;;;;3.72;96.93;103607.69;5112500;27;20028;-71
2022/01/25 10:43:43;;;;;;;79.47;39.22;;;;;;;3.70;97.21;103611.88;5104376;27;20027;-71
2022/01/25 10:46:22;;;;;;;77.53;38.50;;;;;;;3.72;96.04;103604.19;5097711;27;20032;-71
2022/01/25 10:48:50;;;;;;;80.80;37.70;;;;;;;3.77;96.24;103612.41;5101204;27;20040;-71
2022/01/25 10:51:20;;;;;;;81.07;39.55;;;;;;;3.75;95.96;103608.78;5099174;28;20035;-70
2022/01/25 10:53:59;;;;;;;79.25;37.92;;;;;;;3.77;97.29;103612.41;5078600;27;20066;-71
2022/01/25 10:56:25;;;;;;;77.68;38.17;;;;;;;3.78;97.31;103614.25;5098145;27;20049;-71
2022/01/25 10:58:51;;;;;;;82.45;39.88;;;;;;;3.79;96.90;103611.78;5097191;27;20028;-72
2022/01/25 11:01:55;;;;;;;78.10;38.75;;;;;;;3.85;97.49;103616.59;5097347;27;20034;-71
2022/01/25 11:04:24;;;;;;;79.70;38.90;;;;;;;3.81;97.20;103612.84;5036036;28;20033;-71
2022/01/25 11:06:55;;;;;;;80.05;39.95;;;;;;;3.80;96.00;103610.06;5086685;27;20723;-72
2022/01/25 11:09:24;;;;;;;76.95;37.72;;;;;;;3.78;96.72;103615.16;5103914;27;20062;-72
2022/01/25 11:11:55;;;;;;;89.20;41.40;;;;;;;3.80;96.34;103612.66;5127060;27;20051;-71
2022/01/25 11:17:05;;;;;;;78.90;38.13;;;;;;;3.81;96.43;103607.63;5103138;27;20114;-72
2022/01/25 11:19:30;;;;;;;83.30;39.70;;;;;;;3.81;96.96;103609.28;5100835;28;20479;-73
2022/01/25 11:21:58;;;;;;;81.07;39.90;;;;;;;3.86;97.15;103603.72;5092915;27;20027;-72
2022/01/25 11:24:24;;;;;;;85.85;38.63;;;;;;;3.86;95.23;103605.41;5109907;27;20023;-71
2022/01/25 11:26:53;;;;;;;79.45;38.20;;;;;;;3.81;95.12;103602.41;5093016;28;20040;-71
2022/01/25 11:29:19;;;;;;;84.82;39.55;;;;;;;3.81;95.60;103599.81;5099204;28;20538;-72
2022/01/25 11:32:01;;;;;;;86.47;41.00;;;;;;;3.79;95.97;103595.25;5102998;28;20107;-71
2022/01/25 11:34:30;;;;;;;79.70;40.50;;;;;;;3.80;95.26;103602.25;5086770;28;20126;-71
2022/01/25 11:36:57;;;;;;;79.32;38.28;;;;;;;3.80;95.48;103597.97;5104218;27;20028;-71
2022/01/25 11:39:26;;;;;;;87.93;39.30;;;;;;;3.85;95.34;103598.38;5104635;27;20027;-71
2022/01/25 11:42:06;;;;;;;86.32;37.95;;;;;;;3.89;95.40;103590.06;5096226;28;20085;-72
2022/01/25 11:44:32;;;;;;;78.32;37.47;;;;;;;3.95;95.29;103582.78;5108951;28;20023;-71
2022/01/25 11:47:09;;;;;;;79.75;38.00;;;;;;;3.92;95.37;103581.59;5095110;28;20080;-71
2022/01/25 11:49:35;;;;;;;81.28;38.90;;;;;;;3.91;94.73;103578.09;5081751;28;20063;-72
2022/01/25 11:52:05;;;;;;;79.70;39.10;;;;;;;3.97;95.54;103570.78;5095801;28;20082;-71
2022/01/25 11:54:31;;;;;;;79.85;39.13;;;;;;;3.98;95.42;103576.94;5098250;28;20051;-72
2022/01/25 11:57:11;;;;;;;85.53;40.45;;;;;;;3.97;95.30;103577.72;5095968;28;20036;-71
2022/01/25 11:59:37;;;;;;;81.63;40.08;;;;;;;3.96;95.46;103573.28;5105616;28;20028;-70
2022/01/25 12:02:03;;;;;;;79.90;39.60;;;;;;;3.99;96.80;103569.25;5107030;28;20035;-72
2022/01/25 12:04:30;;;;;;;86.43;40.10;;;;;;;4.01;96.30;103570.28;5113924;27;20475;-71
2022/01/25 12:07:08;;;;;;;78.22;39.03;;;;;;;3.99;95.56;103564.03;5111035;27;20035;-73
2022/01/25 12:09:48;;;;;;;82.15;40.83;;;;;;;3.96;94.75;103565.44;5106422;27;20027;-71
2022/01/25 12:12:15;;;;;;;80.03;39.08;;;;;;;4.00;95.32;103560.66;5114054;28;20364;-70
2022/01/25 12:14:50;;;;;;;81.38;38.50;;;;;;;3.97;94.62;103555.16;5108250;27;20537;-70
2022/01/25 12:17:17;;;;;;;83.45;38.05;;;;;;;3.97;94.17;103552.56;5089704;28;20084;-71
2022/01/25 12:20:03;;;;;;;83.93;39.20;;;;;;;3.97;92.01;103542.13;5102667;27;20395;-71
2022/01/25 12:25:18;;;;;;;78.05;37.05;;;;;;;3.95;91.94;103538.50;5098046;27;20503;-71
2022/01/25 12:27:57;;;;;;;76.00;37.70;;;;;;;3.99;91.40;103547.50;5090422;27;20020;-71
2022/01/25 12:30:26;;;;;;;85.22;40.50;;;;;;;3.97;94.14;103549.06;5111635;27;20134;-71
2022/01/25 12:33:02;;;;;;;83.20;39.00;;;;;;;3.98;94.40;103543.97;5111630;27;20023;-71
2022/01/25 12:35:32;;;;;;;82.05;38.88;;;;;;;4.07;95.14;103550.75;5111320;27;20015;-72
2022/01/25 12:38:00;;;;;;;83.18;39.97;;;;;;;4.01;95.43;103541.63;5108150;28;20402;-72
2022/01/25 12:40:26;;;;;;;84.25;40.22;;;;;;;4.04;95.13;103541.91;5109174;27;20077;-71
2022/01/25 12:43:19;;;;;;;78.80;38.53;;;;;;;4.04;94.66;103530.56;5104872;27;20028;-71
2022/01/25 12:46:10;;;;;;;83.50;38.47;;;;;;;4.03;94.62;103520.94;5107791;27;20144;-71
2022/01/25 12:48:40;;;;;;;84.72;40.72;;;;;;;4.02;93.89;103520.00;5108198;28;20131;-71
2022/01/25 12:51:11;;;;;;;80.30;38.60;;;;;;;4.04;94.47;103521.06;5101867;27;20020;-71
2022/01/25 12:53:39;;;;;;;83.95;39.67;;;;;;;4.00;95.01;103518.97;5102282;27;20111;-71
2022/01/25 12:56:27;;;;;;;83.38;37.08;;;;;;;4.00;94.40;103515.44;5114734;27;20056;-72
2022/01/25 12:58:57;;;;;;;79.68;37.80;;;;;;;3.99;93.50;103522.34;5088906;28;20060;-71
2022/01/25 13:01:26;;;;;;;83.38;39.10;;;;;;;4.02;93.82;103512.19;5103962;27;20479;-71
2022/01/25 13:03:55;;;;;;;79.68;38.67;;;;;;;4.05;93.92;103507.25;5121090;27;20433;-71
2022/01/25 13:06:27;;;;;;;84.38;39.00;;;;;;;4.02;94.31;103506.09;5120078;27;20348;-71